Terminal Aerodrome Forecast
Issued by NWS

Home | Current Version | Previous Version | Graphics & Text | Print | Product List | Glossary On
Versions: 1 2 3 4 5 6 7 8 9 10 11 12 13 14 15 16 17 18 19 20 21 22 23 24 25 26 27 28 29 30
573
FTUS43 KBIS 280719 AAA
TAFDIK
TAF AMD
KDIK 280719Z 2807/2906 10006KT P6SM VCTS SCT025 BKN050CB
     FM281500 10008KT P6SM BKN035 OVC080
     FM282300 10007KT P6SM SCT040=

USA.gov is the U.S. government's official web portal to all federal, state and local government web resources and services.